Time;durP1;ratioP1;P1;durP2;ratioP2;P2;SDS_P1;SDS_P2;PMS_P1;PMS_P2;Temp;Humidity;BMP_temperature;BMP_pressure;BME280_temperature;BME280_humidity;BME280_pressure;Samples;Min_cycle;Max_cycle;Signal;HPM_P1;HPM_P2
2022/11/04 00:01:30;;;;;;;11.15;10.35;;;;;;;;;;4994280;28;20143;-59
2022/11/04 00:03:56;;;;;;;10.18;9.48;;;;;;;;;;4995942;28;20352;-59
2022/11/04 00:06:22;;;;;;;10.00;9.40;;;;;;;;;;4998160;28;20030;-59
2022/11/04 00:08:54;;;;;;;10.07;9.48;;;;;;;;;;4998346;28;20121;-59
2022/11/04 00:14:06;;;;;;;9.50;8.90;;;;;;;;;;4999596;28;20605;-58
2022/11/04 00:19:15;;;;;;;10.40;9.65;;;;;;;;;;4999087;28;20033;-59
2022/11/04 00:29:57;;;;;;;9.45;8.85;;;;;;;;;;4998264;28;20749;-58
2022/11/04 00:35:08;;;;;;;9.02;8.43;;;;;;;;;;5000134;28;20022;-59
2022/11/04 00:37:41;;;;;;;9.60;9.00;;;;;;;;;;4998924;28;20113;-59
2022/11/04 00:40:08;;;;;;;9.15;8.48;;;;;;;;;;4999305;28;20096;-59
2022/11/04 00:42:34;;;;;;;9.30;8.60;;;;;;;;;;4997993;28;20065;-59
2022/11/04 00:44:59;;;;;;;8.00;7.50;;;;;;;;;;4995142;28;20046;-60
2022/11/04 00:47:25;;;;;;;9.02;8.43;;;;;;;;;;4996562;28;20031;-60
2022/11/04 00:49:51;;;;;;;9.48;8.88;;;;;;;;;;4996091;28;20049;-60
2022/11/04 00:52:16;;;;;;;9.48;8.88;;;;;;;;;;4997441;28;20057;-60
2022/11/04 00:54:41;;;;;;;9.25;8.65;;;;;;;;;;4999717;28;20025;-60
2022/11/04 00:57:11;;;;;;;8.70;8.10;;;;;;;;;;4997697;28;20443;-59
2022/11/04 00:59:38;;;;;;;8.68;8.07;;;;;;;;;;4998136;28;20029;-59
2022/11/04 01:02:04;;;;;;;8.80;8.20;;;;;;;;;;4995936;28;20053;-59
2022/11/04 01:04:30;;;;;;;9.25;8.65;;;;;;;;;;4997904;28;20048;-59
2022/11/04 01:06:55;;;;;;;8.88;8.27;;;;;;;;;;4998811;28;20116;-59
2022/11/04 01:09:21;;;;;;;8.98;8.38;;;;;;;;;;4999833;28;20366;-59
2022/11/04 01:11:46;;;;;;;8.40;7.90;;;;;;;;;;4996772;28;20086;-59
2022/11/04 01:14:12;;;;;;;8.68;8.13;;;;;;;;;;4998097;28;20034;-59
2022/11/04 01:16:38;;;;;;;9.00;8.40;;;;;;;;;;4998717;28;20040;-59
2022/11/04 01:19:04;;;;;;;9.30;8.70;;;;;;;;;;4994582;28;20037;-59
2022/11/04 01:21:29;;;;;;;9.02;8.43;;;;;;;;;;4995981;28;20065;-58
2022/11/04 01:23:55;;;;;;;8.35;7.85;;;;;;;;;;4998238;28;20100;-58
2022/11/04 01:26:23;;;;;;;9.00;8.40;;;;;;;;;;4998906;28;20512;-59
2022/11/04 01:28:50;;;;;;;8.95;8.38;;;;;;;;;;4997963;28;20071;-60
2022/11/04 01:31:20;;;;;;;8.43;7.93;;;;;;;;;;4997612;28;20088;-59
2022/11/04 01:33:46;;;;;;;9.18;8.57;;;;;;;;;;4997073;28;20038;-59
2022/11/04 01:36:12;;;;;;;8.77;8.23;;;;;;;;;;4997233;28;20471;-59
2022/11/04 01:38:37;;;;;;;8.55;8.00;;;;;;;;;;4996443;28;20057;-59
2022/11/04 01:41:03;;;;;;;9.88;9.25;;;;;;;;;;4995925;28;20192;-59
2022/11/04 01:43:54;;;;;;;9.40;8.80;;;;;;;;;;4995144;28;20096;-59
2022/11/04 01:46:45;;;;;;;8.57;8.07;;;;;;;;;;4998047;28;20045;-59
2022/11/04 01:49:34;;;;;;;8.32;7.82;;;;;;;;;;4998367;28;20061;-59
2022/11/04 01:52:05;;;;;;;8.95;8.35;;;;;;;;;;4996544;28;20034;-59
2022/11/04 01:54:31;;;;;;;7.93;7.43;;;;;;;;;;4995344;28;20038;-59
2022/11/04 01:56:59;;;;;;;8.43;7.93;;;;;;;;;;4987530;28;20153;-58
2022/11/04 01:59:29;;;;;;;8.27;7.78;;;;;;;;;;4994586;28;20076;-59
2022/11/04 02:01:54;;;;;;;8.23;7.72;;;;;;;;;;4996918;28;20046;-59
2022/11/04 02:04:26;;;;;;;7.85;7.35;;;;;;;;;;4996386;28;20030;-59
2022/11/04 02:07:04;;;;;;;7.43;6.93;;;;;;;;;;4996293;28;20038;-59
2022/11/04 02:09:31;;;;;;;7.30;6.80;;;;;;;;;;4994001;28;20137;-58
2022/11/04 02:14:41;;;;;;;7.78;7.28;;;;;;;;;;4998535;28;20033;-58
2022/11/04 02:17:16;;;;;;;7.53;7.03;;;;;;;;;;4982649;28;20085;-59
2022/11/04 02:20:19;;;;;;;7.93;7.43;;;;;;;;;;4999355;28;20494;-59
2022/11/04 02:23:09;;;;;;;7.65;7.15;;;;;;;;;;4994741;28;20036;-59
2022/11/04 02:26:02;;;;;;;7.45;6.95;;;;;;;;;;4996063;28;20040;-59
2022/11/04 02:28:36;;;;;;;7.18;6.68;;;;;;;;;;4997609;28;20132;-59
2022/11/04 02:31:13;;;;;;;7.50;7.00;;;;;;;;;;4995282;28;20133;-60
2022/11/04 02:33:57;;;;;;;7.55;7.05;;;;;;;;;;4994925;28;20073;-59
2022/11/04 02:36:34;;;;;;;7.43;6.93;;;;;;;;;;4994305;28;20077;-59
2022/11/04 02:39:10;;;;;;;6.97;6.40;;;;;;;;;;4993284;28;20034;-59
2022/11/04 02:41:52;;;;;;;7.40;6.90;;;;;;;;;;4994147;28;20030;-59
2022/11/04 02:44:31;;;;;;;7.32;6.82;;;;;;;;;;4993336;28;20104;-59
2022/11/04 02:47:03;;;;;;;6.90;6.40;;;;;;;;;;4995655;28;20068;-59
2022/11/04 02:49:47;;;;;;;7.35;6.85;;;;;;;;;;4995600;28;20038;-59
2022/11/04 02:52:24;;;;;;;7.88;7.38;;;;;;;;;;4995655;28;20033;-59
2022/11/04 02:54:57;;;;;;;7.93;7.32;;;;;;;;;;4994232;28;20057;-59
2022/11/04 02:57:29;;;;;;;6.70;6.20;;;;;;;;;;4994484;28;20044;-59
2022/11/04 03:00:02;;;;;;;7.00;6.50;;;;;;;;;;4995766;28;20149;-59
2022/11/04 03:02:33;;;;;;;7.85;7.35;;;;;;;;;;4993894;28;20068;-60
2022/11/04 03:05:01;;;;;;;7.00;6.50;;;;;;;;;;4999684;28;20061;-60
2022/11/04 03:07:32;;;;;;;7.45;6.95;;;;;;;;;;4993418;28;20026;-60
2022/11/04 03:10:01;;;;;;;6.93;6.43;;;;;;;;;;4996978;28;20031;-60
2022/11/04 03:12:33;;;;;;;7.30;6.80;;;;;;;;;;4995080;28;20725;-60
2022/11/04 03:15:04;;;;;;;6.57;6.18;;;;;;;;;;4992697;28;20493;-59
2022/11/04 03:17:31;;;;;;;;;;;;;;;;;;4995341;28;20145;-60
2022/11/04 03:19:59;;;;;;;7.50;7.00;;;;;;;;;;4995877;28;19918;-60
2022/11/04 03:22:28;;;;;;;7.65;7.15;;;;;;;;;;4993872;28;20476;-59
2022/11/04 03:24:54;;;;;;;6.80;6.30;;;;;;;;;;4995087;28;20172;-59
2022/11/04 03:27:33;;;;;;;7.18;6.68;;;;;;;;;;4993241;28;20129;-59
2022/11/04 03:30:22;;;;;;;7.60;7.10;;;;;;;;;;4999193;28;20034;-59
2022/11/04 03:33:10;;;;;;;6.90;6.40;;;;;;;;;;4985724;28;20034;-60
2022/11/04 03:35:36;;;;;;;7.65;7.15;;;;;;;;;;4991729;28;20589;-60
2022/11/04 03:38:01;;;;;;;8.40;7.70;;;;;;;;;;4994035;28;20073;-59
2022/11/04 03:40:27;;;;;;;7.22;6.72;;;;;;;;;;4994447;28;20037;-59
2022/11/04 03:43:13;;;;;;;6.80;6.30;;;;;;;;;;4998730;28;20065;-59
2022/11/04 03:45:40;;;;;;;6.80;6.30;;;;;;;;;;4999830;28;20042;-59
2022/11/04 03:48:06;;;;;;;6.93;6.43;;;;;;;;;;5000595;28;20030;-59
2022/11/04 03:50:40;;;;;;;7.30;6.80;;;;;;;;;;4997595;28;20081;-59
2022/11/04 03:53:07;;;;;;;7.35;6.85;;;;;;;;;;4999916;28;20121;-59
2022/11/04 03:55:54;;;;;;;7.65;7.05;;;;;;;;;;4995191;28;20065;-59
2022/11/04 03:58:41;;;;;;;7.30;6.70;;;;;;;;;;5000550;28;20121;-60
2022/11/04 04:01:15;;;;;;;8.05;7.55;;;;;;;;;;4999275;28;20034;-63
2022/11/04 04:03:47;;;;;;;7.15;6.65;;;;;;;;;;5001125;28;20085;-63
2022/11/04 04:06:19;;;;;;;8.27;7.70;;;;;;;;;;4996196;28;20042;-63
2022/11/04 04:08:51;;;;;;;9.07;8.48;;;;;;;;;;4999228;28;20028;-63
2022/11/04 04:11:32;;;;;;;7.57;7.07;;;;;;;;;;4998934;28;20034;-63
2022/11/04 04:14:06;;;;;;;7.37;6.87;;;;;;;;;;5000044;28;20041;-63
2022/11/04 04:16:37;;;;;;;7.75;7.25;;;;;;;;;;4981817;28;20044;-62
2022/11/04 04:19:13;;;;;;;8.07;7.57;;;;;;;;;;4998708;28;20029;-63
2022/11/04 04:21:46;;;;;;;8.02;7.53;;;;;;;;;;4997359;28;20399;-61
2022/11/04 04:29:45;;;;;;;8.70;8.18;;;;;;;;;;4996820;28;20025;-63
2022/11/04 04:32:12;;;;;;;9.05;8.35;;;;;;;;;;4998632;28;20376;-63
2022/11/04 04:34:38;;;;;;;8.52;8.00;;;;;;;;;;4997137;28;20038;-62
2022/11/04 04:37:13;;;;;;;8.73;8.13;;;;;;;;;;4995552;28;20507;-62
2022/11/04 04:45:41;;;;;;;8.15;7.65;;;;;;;;;;4999030;28;20587;-62
2022/11/04 04:48:09;;;;;;;9.48;8.88;;;;;;;;;;4998378;28;20045;-62
2022/11/04 04:50:37;;;;;;;8.85;8.27;;;;;;;;;;4997817;28;20034;-62
2022/11/04 04:53:03;;;;;;;8.68;8.10;;;;;;;;;;4996991;28;20508;-62
2022/11/04 04:55:30;;;;;;;8.85;8.25;;;;;;;;;;4997212;28;20031;-62
2022/11/04 04:57:56;;;;;;;7.80;7.30;;;;;;;;;;4996626;28;20078;-62
2022/11/04 05:00:21;;;;;;;8.65;8.13;;;;;;;;;;4997275;28;20130;-62
2022/11/04 05:02:47;;;;;;;9.98;9.23;;;;;;;;;;4993999;28;20034;-62
2022/11/04 05:05:14;;;;;;;16.20;9.55;;;;;;;;;;4997733;28;20038;-63
2022/11/04 05:07:39;;;;;;;8.63;8.10;;;;;;;;;;4997496;28;20456;-62
2022/11/04 05:10:06;;;;;;;9.13;8.50;;;;;;;;;;4999125;28;20034;-63
2022/11/04 05:15:18;;;;;;;8.93;8.15;;;;;;;;;;5000691;28;20046;-63
2022/11/04 05:17:43;;;;;;;8.98;8.38;;;;;;;;;;4993852;28;20034;-63
2022/11/04 05:20:09;;;;;;;7.90;7.40;;;;;;;;;;4997669;28;20092;-63
2022/11/04 05:22:34;;;;;;;8.95;8.35;;;;;;;;;;4993658;28;20033;-61
2022/11/04 05:25:00;;;;;;;8.18;7.68;;;;;;;;;;4997302;28;20416;-62
2022/11/04 05:27:25;;;;;;;8.23;7.72;;;;;;;;;;5003641;28;20037;-62
2022/11/04 05:29:50;;;;;;;9.05;8.45;;;;;;;;;;4999772;28;20046;-62
2022/11/04 05:32:16;;;;;;;8.55;7.95;;;;;;;;;;4994601;28;20156;-62
2022/11/04 05:34:41;;;;;;;8.27;7.78;;;;;;;;;;4998114;28;20034;-62
2022/11/04 05:37:06;;;;;;;8.00;7.50;;;;;;;;;;4999874;28;20029;-63
2022/11/04 05:39:32;;;;;;;8.13;7.63;;;;;;;;;;4994502;28;20042;-62
2022/11/04 05:41:57;;;;;;;8.20;7.70;;;;;;;;;;4997264;28;20034;-62
2022/11/04 05:44:23;;;;;;;7.90;7.40;;;;;;;;;;4997801;28;20048;-62
2022/11/04 05:46:48;;;;;;;8.15;7.65;;;;;;;;;;4995360;28;20052;-63
2022/11/04 05:49:13;;;;;;;9.90;9.02;;;;;;;;;;4995803;28;20023;-62
2022/11/04 05:51:39;;;;;;;8.48;7.88;;;;;;;;;;4994183;28;20054;-62
2022/11/04 05:54:04;;;;;;;7.95;7.45;;;;;;;;;;4998686;28;20042;-62
2022/11/04 05:56:29;;;;;;;7.68;7.18;;;;;;;;;;4996591;28;20030;-63
2022/11/04 05:58:55;;;;;;;9.15;8.45;;;;;;;;;;4999836;28;20088;-63
2022/11/04 06:01:29;;;;;;;8.57;8.07;;;;;;;;;;4995740;28;20030;-62
2022/11/04 06:03:56;;;;;;;8.65;8.15;;;;;;;;;;4998168;28;20038;-63
2022/11/04 06:06:23;;;;;;;8.30;7.80;;;;;;;;;;5003276;28;20044;-62
2022/11/04 06:08:49;;;;;;;8.35;7.85;;;;;;;;;;4997754;28;20029;-62
2022/11/04 06:11:15;;;;;;;8.70;8.10;;;;;;;;;;4997300;28;20151;-61
2022/11/04 06:13:40;;;;;;;8.95;8.35;;;;;;;;;;4996212;28;20029;-59
2022/11/04 06:16:06;;;;;;;8.68;8.10;;;;;;;;;;4997259;28;20353;-59
2022/11/04 06:18:31;;;;;;;8.73;8.13;;;;;;;;;;4995203;28;20471;-60
2022/11/04 06:21:21;;;;;;;8.40;7.90;;;;;;;;;;4997745;28;20518;-60
2022/11/04 06:23:47;;;;;;;8.70;8.10;;;;;;;;;;4996122;28;20773;-59
2022/11/04 06:26:13;;;;;;;8.27;7.78;;;;;;;;;;4998123;28;20038;-59
2022/11/04 06:28:39;;;;;;;8.05;7.55;;;;;;;;;;5000043;28;20048;-59
2022/11/04 06:31:07;;;;;;;7.97;7.47;;;;;;;;;;4993464;28;20034;-60
2022/11/04 06:33:32;;;;;;;8.85;8.27;;;;;;;;;;4993766;28;20129;-60
2022/11/04 06:35:59;;;;;;;8.80;8.20;;;;;;;;;;4995657;28;20283;-62
2022/11/04 06:38:25;;;;;;;9.05;8.45;;;;;;;;;;4994879;28;20522;-62
2022/11/04 06:40:50;;;;;;;8.20;7.70;;;;;;;;;;4995039;28;20148;-63
2022/11/04 06:43:16;;;;;;;7.85;7.35;;;;;;;;;;4995960;28;20100;-63
2022/11/04 06:45:41;;;;;;;8.70;8.10;;;;;;;;;;4996570;28;20030;-63
2022/11/04 06:48:06;;;;;;;8.75;8.15;;;;;;;;;;4994998;28;20080;-63
2022/11/04 06:50:32;;;;;;;8.25;7.75;;;;;;;;;;4996037;28;20029;-62
2022/11/04 06:52:58;;;;;;;9.38;8.77;;;;;;;;;;4993457;28;20041;-63
2022/11/04 06:55:23;;;;;;;8.48;7.88;;;;;;;;;;4995584;28;20073;-63
2022/11/04 06:57:49;;;;;;;8.73;8.13;;;;;;;;;;4994859;28;20037;-63
2022/11/04 07:00:15;;;;;;;9.07;8.48;;;;;;;;;;4996349;28;20046;-63
2022/11/04 07:02:40;;;;;;;8.40;7.80;;;;;;;;;;4995931;28;20030;-63
2022/11/04 07:05:06;;;;;;;8.77;8.20;;;;;;;;;;4997159;28;20022;-63
2022/11/04 07:07:31;;;;;;;9.05;8.45;;;;;;;;;;4996421;28;20140;-63
2022/11/04 07:09:56;;;;;;;8.48;7.88;;;;;;;;;;4993941;28;20511;-63
2022/11/04 07:12:23;;;;;;;8.68;8.07;;;;;;;;;;4992060;28;20061;-63
2022/11/04 07:14:49;;;;;;;9.20;8.60;;;;;;;;;;4996444;28;20153;-64
2022/11/04 07:17:14;;;;;;;8.82;8.25;;;;;;;;;;4993820;28;20152;-63
2022/11/04 07:19:39;;;;;;;9.10;8.43;;;;;;;;;;4995317;28;20040;-63
2022/11/04 07:22:05;;;;;;;8.60;8.00;;;;;;;;;;4993935;28;20168;-63
2022/11/04 07:24:30;;;;;;;7.93;7.43;;;;;;;;;;4995318;28;20102;-65
2022/11/04 07:26:55;;;;;;;7.82;7.28;;;;;;;;;;4995533;28;20054;-63
2022/11/04 07:29:21;;;;;;;8.93;8.32;;;;;;;;;;4997562;28;20418;-64
2022/11/04 07:31:46;;;;;;;9.23;8.52;;;;;;;;;;4992583;28;20583;-64
2022/11/04 07:34:11;;;;;;;8.50;7.90;;;;;;;;;;4998019;28;20053;-64
2022/11/04 07:36:37;;;;;;;8.18;7.68;;;;;;;;;;4993494;28;20111;-64
2022/11/04 07:39:03;;;;;;;7.95;7.45;;;;;;;;;;4994128;28;20458;-64
2022/11/04 07:41:28;;;;;;;8.30;7.68;;;;;;;;;;4994352;28;20034;-65
2022/11/04 07:43:54;;;;;;;8.85;8.05;;;;;;;;;;4992581;28;20034;-65
2022/11/04 07:46:20;;;;;;;7.90;7.40;;;;;;;;;;4994203;28;20439;-65
2022/11/04 07:48:46;;;;;;;8.93;8.32;;;;;;;;;;4995926;28;20045;-65
2022/11/04 07:51:15;;;;;;;7.97;7.47;;;;;;;;;;4991465;28;20056;-65
2022/11/04 07:53:41;;;;;;;10.18;8.35;;;;;;;;;;4993329;28;20037;-64
2022/11/04 07:56:10;;;;;;;8.10;7.50;;;;;;;;;;4992570;28;20041;-64
2022/11/04 07:58:36;;;;;;;7.88;7.28;;;;;;;;;;4994565;28;20095;-64
2022/11/04 08:01:07;;;;;;;8.63;7.97;;;;;;;;;;4995614;28;20100;-63
2022/11/04 08:03:33;;;;;;;;;;;;;;;;;;4994399;28;20030;-64
2022/11/04 08:06:00;;;;;;;7.80;7.30;;;;;;;;;;4995926;28;19914;-63
2022/11/04 08:08:27;;;;;;;7.60;7.10;;;;;;;;;;4995764;28;20444;-64
2022/11/04 08:11:01;;;;;;;7.07;6.57;;;;;;;;;;4992377;28;20040;-63
2022/11/04 08:13:28;;;;;;;7.80;7.30;;;;;;;;;;4993559;28;20498;-63
2022/11/04 08:15:54;;;;;;;7.50;7.00;;;;;;;;;;4995811;28;20104;-63
2022/11/04 08:18:20;;;;;;;8.48;7.90;;;;;;;;;;4994943;28;20332;-64
2022/11/04 08:20:47;;;;;;;8.00;7.50;;;;;;;;;;4995429;28;20133;-64
2022/11/04 08:23:12;;;;;;;7.03;6.53;;;;;;;;;;4996078;28;20034;-63
2022/11/04 08:25:38;;;;;;;7.70;7.20;;;;;;;;;;4999389;28;20042;-64
2022/11/04 08:28:03;;;;;;;7.53;7.03;;;;;;;;;;4997130;28;20459;-63
2022/11/04 08:30:28;;;;;;;7.95;7.25;;;;;;;;;;4997090;28;20383;-63
2022/11/04 08:32:54;;;;;;;7.65;7.15;;;;;;;;;;4999955;28;20051;-62
2022/11/04 08:35:19;;;;;;;7.75;7.25;;;;;;;;;;4997666;28;20045;-62
2022/11/04 08:37:44;;;;;;;7.35;6.85;;;;;;;;;;4995632;28;20109;-63
2022/11/04 08:40:10;;;;;;;7.88;7.38;;;;;;;;;;4998653;28;20168;-62
2022/11/04 08:42:35;;;;;;;7.95;7.45;;;;;;;;;;4995171;28;20042;-64
2022/11/04 08:45:01;;;;;;;8.52;7.82;;;;;;;;;;4997377;28;20443;-64
2022/11/04 08:47:26;;;;;;;8.32;7.82;;;;;;;;;;4997922;28;20038;-62
2022/11/04 08:49:52;;;;;;;7.50;7.00;;;;;;;;;;4997884;28;20455;-64
2022/11/04 08:52:17;;;;;;;8.15;7.65;;;;;;;;;;4994448;28;20030;-64
2022/11/04 08:54:43;;;;;;;7.53;7.03;;;;;;;;;;4997487;28;20565;-64
2022/11/04 08:57:09;;;;;;;8.23;7.72;;;;;;;;;;4998043;28;20241;-63
2022/11/04 08:59:35;;;;;;;7.88;7.38;;;;;;;;;;4995577;28;20080;-64
2022/11/04 09:02:00;;;;;;;7.53;7.03;;;;;;;;;;4994728;28;20061;-64
2022/11/04 09:04:25;;;;;;;8.13;7.53;;;;;;;;;;4997514;28;20364;-65
2022/11/04 09:06:51;;;;;;;8.48;7.88;;;;;;;;;;4992717;28;20515;-64
2022/11/04 09:09:17;;;;;;;8.38;7.88;;;;;;;;;;4997121;28;20037;-64
2022/11/04 09:11:44;;;;;;;7.68;7.18;;;;;;;;;;4997202;28;20161;-64
2022/11/04 09:14:10;;;;;;;7.30;6.80;;;;;;;;;;4995627;28;20031;-65
2022/11/04 09:16:36;;;;;;;9.13;6.80;;;;;;;;;;4997775;28;20039;-67
2022/11/04 09:19:02;;;;;;;7.93;7.32;;;;;;;;;;4997444;28;20715;-64
2022/11/04 09:21:27;;;;;;;8.13;7.43;;;;;;;;;;4996233;28;20073;-64
2022/11/04 09:23:53;;;;;;;7.20;6.70;;;;;;;;;;4997830;28;20625;-64
2022/11/04 09:26:21;;;;;;;7.30;6.80;;;;;;;;;;4997208;28;20037;-64
2022/11/04 09:28:47;;;;;;;7.10;6.60;;;;;;;;;;4996328;28;20072;-64
2022/11/04 09:31:15;;;;;;;7.13;6.63;;;;;;;;;;4997049;28;20046;-64
2022/11/04 09:33:41;;;;;;;7.63;7.13;;;;;;;;;;4999032;28;20095;-64
2022/11/04 09:36:08;;;;;;;8.18;7.68;;;;;;;;;;4997850;28;20065;-64
2022/11/04 09:38:34;;;;;;;7.45;6.95;;;;;;;;;;4993995;28;20353;-64
2022/11/04 09:40:59;;;;;;;7.72;7.13;;;;;;;;;;4993609;28;20172;-64
2022/11/04 09:43:52;;;;;;;7.40;6.90;;;;;;;;;;4995476;28;20135;-64
2022/11/04 09:46:19;;;;;;;7.35;6.85;;;;;;;;;;4997360;28;20042;-64
2022/11/04 09:48:49;;;;;;;7.80;7.28;;;;;;;;;;4995023;28;20108;-64
2022/11/04 09:51:18;;;;;;;11.98;7.82;;;;;;;;;;4995359;28;20030;-64
2022/11/04 09:53:48;;;;;;;7.85;7.35;;;;;;;;;;4993345;28;20056;-64
2022/11/04 09:56:26;;;;;;;7.40;6.90;;;;;;;;;;4997575;28;20030;-64
2022/11/04 09:58:52;;;;;;;7.28;6.78;;;;;;;;;;4996819;28;20049;-65
2022/11/04 10:01:17;;;;;;;7.50;7.00;;;;;;;;;;4994821;28;20034;-64
2022/11/04 10:04:16;;;;;;;7.43;6.93;;;;;;;;;;4995851;28;20091;-64
2022/11/04 10:06:42;;;;;;;7.35;6.85;;;;;;;;;;4995039;28;20041;-64
2022/11/04 10:09:16;;;;;;;7.72;7.22;;;;;;;;;;4995068;28;20435;-64
2022/11/04 10:11:44;;;;;;;7.45;6.95;;;;;;;;;;4996068;28;20045;-63
2022/11/04 10:14:24;;;;;;;7.60;7.10;;;;;;;;;;4999182;28;20038;-64
2022/11/04 10:17:16;;;;;;;7.18;6.68;;;;;;;;;;4994609;28;20042;-64
2022/11/04 10:20:19;;;;;;;9.07;8.48;;;;;;;;;;4995027;28;20042;-64
2022/11/04 10:22:59;;;;;;;8.23;7.70;;;;;;;;;;4996454;28;20138;-68
2022/11/04 10:25:37;;;;;;;8.27;7.78;;;;;;;;;;4999042;28;20065;-65
2022/11/04 10:28:03;;;;;;;7.55;7.05;;;;;;;;;;4995132;28;20022;-63
2022/11/04 10:30:30;;;;;;;7.63;7.13;;;;;;;;;;5000058;28;20201;-64
2022/11/04 10:33:14;;;;;;;7.63;7.13;;;;;;;;;;4995331;28;20034;-63
2022/11/04 10:35:46;;;;;;;8.20;7.60;;;;;;;;;;4997894;28;20053;-63
2022/11/04 10:38:21;;;;;;;7.85;7.35;;;;;;;;;;4996226;28;20165;-63
2022/11/04 10:40:50;;;;;;;8.90;8.30;;;;;;;;;;4995666;28;20155;-63
2022/11/04 10:43:22;;;;;;;9.05;8.40;;;;;;;;;;4995853;28;20104;-63
2022/11/04 10:45:59;;;;;;;8.57;8.00;;;;;;;;;;4995810;28;20459;-64
2022/11/04 10:48:35;;;;;;;10.25;9.60;;;;;;;;;;4993268;28;20502;-63
2022/11/04 10:51:01;;;;;;;12.07;11.38;;;;;;;;;;4993070;28;20042;-64
2022/11/04 10:53:30;;;;;;;13.50;12.57;;;;;;;;;;4995750;28;20365;-63
2022/11/04 10:56:21;;;;;;;13.43;12.63;;;;;;;;;;4995443;28;20030;-64
2022/11/04 10:58:47;;;;;;;11.85;11.15;;;;;;;;;;4996359;28;20056;-63
2022/11/04 11:01:46;;;;;;;14.38;13.57;;;;;;;;;;4991633;28;20545;-64
2022/11/04 11:04:30;;;;;;;13.35;12.55;;;;;;;;;;4993542;28;20125;-64
2022/11/04 11:06:57;;;;;;;13.18;12.38;;;;;;;;;;4997605;28;20042;-63
2022/11/04 11:09:29;;;;;;;13.88;13.07;;;;;;;;;;4994960;28;20068;-63
2022/11/04 11:12:27;;;;;;;19.15;12.93;;;;;;;;;;4993047;28;20038;-63
2022/11/04 11:14:53;;;;;;;14.52;13.73;;;;;;;;;;4996555;28;20117;-63
2022/11/04 11:17:36;;;;;;;16.23;15.18;;;;;;;;;;4996607;28;20136;-64
2022/11/04 11:20:15;;;;;;;12.60;11.90;;;;;;;;;;4993801;28;20479;-63
2022/11/04 11:22:43;;;;;;;13.23;12.15;;;;;;;;;;4991761;28;20035;-65
2022/11/04 11:25:21;;;;;;;17.98;16.98;;;;;;;;;;4995688;28;20034;-63
2022/11/04 11:28:11;;;;;;;17.70;16.70;;;;;;;;;;5000033;28;20029;-63
2022/11/04 11:30:42;;;;;;;17.90;16.90;;;;;;;;;;4998309;28;20145;-63
2022/11/04 11:33:14;;;;;;;21.45;20.25;;;;;;;;;;4995405;28;20026;-64
2022/11/04 11:35:43;;;;;;;21.42;20.27;;;;;;;;;;4998173;28;20052;-63
2022/11/04 11:38:20;;;;;;;16.92;15.98;;;;;;;;;;4996568;28;20082;-64
2022/11/04 11:40:47;;;;;;;19.70;18.60;;;;;;;;;;4996946;28;20349;-64
2022/11/04 11:43:29;;;;;;;20.88;19.65;;;;;;;;;;4991970;28;20146;-64
2022/11/04 11:45:58;;;;;;;21.25;20.05;;;;;;;;;;4992728;28;20033;-63
2022/11/04 11:48:43;;;;;;;21.35;20.20;;;;;;;;;;4997642;28;20045;-63
2022/11/04 11:51:13;;;;;;;17.95;16.95;;;;;;;;;;4992181;28;20041;-63
2022/11/04 11:53:56;;;;;;;15.85;14.85;;;;;;;;;;4997132;28;20029;-63
2022/11/04 11:56:42;;;;;;;14.18;13.38;;;;;;;;;;4993633;28;20689;-64
2022/11/04 11:59:27;;;;;;;14.02;13.18;;;;;;;;;;4997525;28;20396;-65
2022/11/04 12:02:15;;;;;;;16.80;15.90;;;;;;;;;;4992263;28;20038;-64
2022/11/04 12:04:41;;;;;;;19.30;18.20;;;;;;;;;;4998560;28;20467;-64
2022/11/04 12:07:44;;;;;;;19.08;17.98;;;;;;;;;;4996457;28;20042;-65
2022/11/04 12:10:10;;;;;;;18.50;17.50;;;;;;;;;;4997691;28;20512;-63
2022/11/04 12:13:01;;;;;;;18.15;17.15;;;;;;;;;;4996067;28;20065;-63
2022/11/04 12:16:00;;;;;;;16.45;15.55;;;;;;;;;;4998706;28;20034;-63
2022/11/04 12:18:32;;;;;;;18.40;17.40;;;;;;;;;;4995617;28;20034;-64
2022/11/04 12:21:22;;;;;;;21.33;20.23;;;;;;;;;;4999841;28;20030;-64
2022/11/04 12:24:26;;;;;;;20.93;19.57;;;;;;;;;;4987223;28;20046;-63
2022/11/04 12:27:13;;;;;;;18.85;17.83;;;;;;;;;;4995521;28;20079;-62
2022/11/04 12:29:59;;;;;;;18.15;17.05;;;;;;;;;;4995667;28;20030;-63
2022/11/04 12:32:37;;;;;;;17.35;16.25;;;;;;;;;;4996990;28;20034;-62
2022/11/04 12:35:39;;;;;;;14.98;14.15;;;;;;;;;;4997081;28;20038;-62
2022/11/04 12:38:43;;;;;;;12.85;12.05;;;;;;;;;;4998692;28;20030;-61
2022/11/04 12:41:47;;;;;;;16.08;15.15;;;;;;;;;;4996501;28;20034;-61
2022/11/04 12:44:33;;;;;;;14.15;13.35;;;;;;;;;;4993089;28;20597;-62
2022/11/04 12:47:32;;;;;;;17.08;16.08;;;;;;;;;;4996409;28;20026;-63
2022/11/04 12:50:28;;;;;;;15.57;14.45;;;;;;;;;;4997282;28;20026;-62
2022/11/04 12:53:29;;;;;;;14.85;14.05;;;;;;;;;;4997277;28;20042;-63
2022/11/04 12:56:00;;;;;;;18.90;17.85;;;;;;;;;;4999491;28;20029;-62
2022/11/04 12:58:33;;;;;;;16.83;15.70;;;;;;;;;;5000494;28;20110;-61
2022/11/04 13:01:09;;;;;;;15.93;15.02;;;;;;;;;;4992582;28;20621;-62
2022/11/04 13:03:44;;;;;;;17.65;16.55;;;;;;;;;;4997506;28;20080;-62
2022/11/04 13:06:25;;;;;;;17.67;16.67;;;;;;;;;;4997617;28;20488;-63
2022/11/04 13:09:01;;;;;;;17.30;16.33;;;;;;;;;;4996078;28;20125;-62
2022/11/04 13:12:06;;;;;;;20.10;18.77;;;;;;;;;;4999081;28;20085;-62
2022/11/04 13:14:56;;;;;;;18.67;17.58;;;;;;;;;;4998022;28;20041;-63
2022/11/04 13:17:27;;;;;;;18.20;17.20;;;;;;;;;;4978119;28;20097;-62
2022/11/04 13:19:57;;;;;;;19.15;18.05;;;;;;;;;;5001090;28;20033;-63
2022/11/04 13:22:32;;;;;;;17.58;16.10;;;;;;;;;;4997047;28;20050;-62
2022/11/04 13:25:05;;;;;;;16.05;15.05;;;;;;;;;;4995541;28;20092;-62
2022/11/04 13:27:36;;;;;;;18.17;16.48;;;;;;;;;;4996421;28;20514;-62
2022/11/04 13:30:25;;;;;;;18.48;17.48;;;;;;;;;;4996391;28;20435;-62
2022/11/04 13:33:21;;;;;;;16.90;16.00;;;;;;;;;;4997107;28;20042;-62
2022/11/04 13:36:11;;;;;;;17.77;16.77;;;;;;;;;;4996654;28;20467;-62
2022/11/04 13:38:46;;;;;;;18.00;16.90;;;;;;;;;;4994159;28;20826;-63
2022/11/04 13:41:38;;;;;;;17.90;16.90;;;;;;;;;;4994924;28;20117;-62
2022/11/04 13:44:19;;;;;;;19.00;18.00;;;;;;;;;;4996296;28;20427;-61
2022/11/04 13:46:50;;;;;;;18.35;17.23;;;;;;;;;;4997549;28;20087;-62
2022/11/04 13:49:29;;;;;;;17.13;16.23;;;;;;;;;;4998817;28;20034;-62
2022/11/04 13:52:12;;;;;;;16.35;15.45;;;;;;;;;;4994169;28;20033;-63
2022/11/04 13:54:53;;;;;;;15.55;14.65;;;;;;;;;;4996680;28;20632;-62
2022/11/04 13:57:24;;;;;;;19.08;18.08;;;;;;;;;;4995222;28;20042;-62
2022/11/04 14:00:19;;;;;;;19.48;18.38;;;;;;;;;;4996454;28;20375;-61
2022/11/04 14:02:46;;;;;;;17.88;16.88;;;;;;;;;;4993729;28;20057;-62
2022/11/04 14:05:27;;;;;;;16.80;15.90;;;;;;;;;;4998482;28;20854;-63
2022/11/04 14:07:58;;;;;;;;;;;;;;;;;;4999142;28;20037;-62
2022/11/04 14:10:48;;;;;;;16.08;15.18;;;;;;;;;;4995301;28;19913;-63
2022/11/04 14:13:26;;;;;;;13.67;12.87;;;;;;;;;;5002439;28;20053;-62
2022/11/04 14:15:57;;;;;;;14.77;13.90;;;;;;;;;;5003351;28;20053;-62
2022/11/04 14:18:32;;;;;;;13.75;12.95;;;;;;;;;;4995920;28;20066;-62
2022/11/04 14:21:11;;;;;;;13.35;12.55;;;;;;;;;;4996972;28;20049;-62
2022/11/04 14:23:39;;;;;;;15.80;14.90;;;;;;;;;;4994855;28;20512;-63
2022/11/04 14:26:07;;;;;;;13.98;13.18;;;;;;;;;;4997989;28;20152;-63
2022/11/04 14:28:33;;;;;;;15.57;14.68;;;;;;;;;;4995225;28;20064;-62
2022/11/04 14:31:07;;;;;;;14.52;13.68;;;;;;;;;;4996578;28;20034;-62
2022/11/04 14:33:38;;;;;;;15.20;14.27;;;;;;;;;;4995136;28;20030;-63
2022/11/04 14:36:19;;;;;;;15.70;14.18;;;;;;;;;;4995237;28;20041;-62
2022/11/04 14:38:59;;;;;;;15.27;14.13;;;;;;;;;;4995260;28;20025;-62
2022/11/04 14:41:27;;;;;;;13.57;12.77;;;;;;;;;;4996330;28;20045;-62
2022/11/04 14:43:56;;;;;;;14.75;13.95;;;;;;;;;;4994712;28;20732;-63
2022/11/04 14:46:24;;;;;;;12.57;11.88;;;;;;;;;;4998227;28;20117;-62
2022/11/04 14:48:55;;;;;;;13.50;12.50;;;;;;;;;;4996239;28;20038;-63
2022/11/04 14:51:24;;;;;;;12.75;12.05;;;;;;;;;;4995090;28;20117;-62
2022/11/04 14:53:51;;;;;;;14.98;13.98;;;;;;;;;;4992948;28;20053;-62
2022/11/04 14:56:22;;;;;;;16.05;13.38;;;;;;;;;;4993427;28;20030;-62
2022/11/04 14:59:04;;;;;;;12.73;12.02;;;;;;;;;;4994665;28;20061;-62
2022/11/04 15:01:39;;;;;;;13.95;13.15;;;;;;;;;;4994408;28;20065;-62
2022/11/04 15:04:12;;;;;;;14.02;13.23;;;;;;;;;;4994083;28;20038;-62
2022/11/04 15:06:37;;;;;;;14.32;13.43;;;;;;;;;;4994047;28;20042;-62
2022/11/04 15:09:03;;;;;;;13.93;13.00;;;;;;;;;;4993747;28;20044;-62
2022/11/04 15:14:14;;;;;;;11.70;11.00;;;;;;;;;;4994417;28;20042;-62
2022/11/04 15:16:40;;;;;;;12.25;11.45;;;;;;;;;;4994862;28;20091;-62
2022/11/04 15:19:09;;;;;;;12.15;11.45;;;;;;;;;;4994295;28;20103;-62
2022/11/04 15:21:38;;;;;;;12.23;11.52;;;;;;;;;;4992359;28;20518;-63
2022/11/04 15:24:04;;;;;;;11.88;11.18;;;;;;;;;;4994816;28;20038;-62
2022/11/04 15:26:33;;;;;;;10.80;10.10;;;;;;;;;;4997032;28;20048;-62
2022/11/04 15:29:01;;;;;;;10.43;9.82;;;;;;;;;;4995125;28;20407;-62
2022/11/04 15:31:30;;;;;;;10.27;9.68;;;;;;;;;;4993683;28;20034;-62
2022/11/04 15:33:57;;;;;;;10.68;10.02;;;;;;;;;;4995726;28;20030;-63
2022/11/04 15:36:45;;;;;;;9.25;8.63;;;;;;;;;;4990986;28;20400;-62
2022/11/04 15:39:13;;;;;;;9.10;8.40;;;;;;;;;;4994469;28;20056;-62
2022/11/04 15:44:30;;;;;;;8.18;7.68;;;;;;;;;;4995217;28;20099;-62